sensor_id;sensor_type;location;lat;lon;timestamp;pressure;altitude;pressure_sealevel;temperature;humidity
19795;BME280;10057;59.402;17.866;2023-07-02T00:00:09;99237.69;;;18.26;58.45
19795;BME280;10057;59.402;17.866;2023-07-02T00:02:37;99236.69;;;18.27;58.26
19795;BME280;10057;59.402;17.866;2023-07-02T00:05:05;99233.00;;;18.28;58.37
19795;BME280;10057;59.402;17.866;2023-07-02T00:07:33;99233.72;;;18.30;58.30
19795;BME280;10057;59.402;17.866;2023-07-02T00:10:01;99227.81;;;18.27;58.27
19795;BME280;10057;59.402;17.866;2023-07-02T00:12:28;99227.25;;;18.23;58.20
19795;BME280;10057;59.402;17.866;2023-07-02T00:14:55;99231.22;;;18.19;58.36
19795;BME280;10057;59.402;17.866;2023-07-02T00:17:22;99223.16;;;18.19;58.32
19795;BME280;10057;59.402;17.866;2023-07-02T00:19:48;99223.00;;;18.11;58.52
19795;BME280;10057;59.402;17.866;2023-07-02T00:22:19;99223.72;;;18.03;58.65
19795;BME280;10057;59.402;17.866;2023-07-02T00:24:46;99215.66;;;17.93;58.96
19795;BME280;10057;59.402;17.866;2023-07-02T00:27:13;99218.06;;;17.87;59.22
19795;BME280;10057;59.402;17.866;2023-07-02T00:29:40;99208.75;;;17.81;59.23
19795;BME280;10057;59.402;17.866;2023-07-02T00:32:07;99208.88;;;17.80;59.43
19795;BME280;10057;59.402;17.866;2023-07-02T00:34:34;99206.91;;;17.82;59.61
19795;BME280;10057;59.402;17.866;2023-07-02T00:37:00;99207.19;;;17.88;59.63
19795;BME280;10057;59.402;17.866;2023-07-02T00:39:27;99208.44;;;17.94;59.54
19795;BME280;10057;59.402;17.866;2023-07-02T00:42:00;99201.97;;;17.96;59.70
19795;BME280;10057;59.402;17.866;2023-07-02T00:44:26;99200.41;;;18.04;59.50
19795;BME280;10057;59.402;17.866;2023-07-02T00:46:53;99190.94;;;18.09;59.68
19795;BME280;10057;59.402;17.866;2023-07-02T00:49:21;99188.13;;;18.11;59.63
19795;BME280;10057;59.402;17.866;2023-07-02T00:51:47;99182.63;;;18.12;59.71
19795;BME280;10057;59.402;17.866;2023-07-02T00:54:14;99189.69;;;18.13;59.43
19795;BME280;10057;59.402;17.866;2023-07-02T00:56:41;99179.94;;;18.12;59.79
19795;BME280;10057;59.402;17.866;2023-07-02T00:59:08;99187.72;;;18.15;59.66
19795;BME280;10057;59.402;17.866;2023-07-02T01:01:35;99182.47;;;18.14;59.72
19795;BME280;10057;59.402;17.866;2023-07-02T01:04:06;99174.00;;;18.09;59.70
19795;BME280;10057;59.402;17.866;2023-07-02T01:06:39;99173.44;;;18.05;59.61
19795;BME280;10057;59.402;17.866;2023-07-02T01:09:09;99173.56;;;18.04;59.79
19795;BME280;10057;59.402;17.866;2023-07-02T01:11:49;99174.41;;;18.04;59.90
19795;BME280;10057;59.402;17.866;2023-07-02T01:14:25;99169.22;;;18.03;59.91
19795;BME280;10057;59.402;17.866;2023-07-02T01:16:53;99168.09;;;18.05;60.14
19795;BME280;10057;59.402;17.866;2023-07-02T01:20:08;99157.03;;;18.08;60.10
19795;BME280;10057;59.402;17.866;2023-07-02T01:22:09;99148.88;;;18.10;60.07
19795;BME280;10057;59.402;17.866;2023-07-02T01:24:38;99147.88;;;18.11;60.08
19795;BME280;10057;59.402;17.866;2023-07-02T01:27:06;99144.78;;;18.06;60.39
19795;BME280;10057;59.402;17.866;2023-07-02T01:29:33;99148.59;;;18.03;60.36
19795;BME280;10057;59.402;17.866;2023-07-02T01:32:03;99145.06;;;18.03;60.65
19795;BME280;10057;59.402;17.866;2023-07-02T01:34:31;99145.19;;;18.01;60.63
19795;BME280;10057;59.402;17.866;2023-07-02T01:36:58;99148.44;;;18.05;60.70
19795;BME280;10057;59.402;17.866;2023-07-02T01:39:24;99143.06;;;18.05;60.56
19795;BME280;10057;59.402;17.866;2023-07-02T01:41:53;99142.38;;;18.03;60.73
19795;BME280;10057;59.402;17.866;2023-07-02T01:44:20;99136.47;;;17.99;60.52
19795;BME280;10057;59.402;17.866;2023-07-02T01:46:48;99138.16;;;17.90;60.69
19795;BME280;10057;59.402;17.866;2023-07-02T01:49:16;99134.50;;;17.82;60.76
19795;BME280;10057;59.402;17.866;2023-07-02T01:51:54;99130.09;;;17.71;60.61
19795;BME280;10057;59.402;17.866;2023-07-02T01:54:24;99129.09;;;17.62;61.22
19795;BME280;10057;59.402;17.866;2023-07-02T01:56:54;99124.44;;;17.55;61.17
19795;BME280;10057;59.402;17.866;2023-07-02T01:59:21;99124.00;;;17.49;61.27
19795;BME280;10057;59.402;17.866;2023-07-02T02:01:48;99123.44;;;17.46;61.65
19795;BME280;10057;59.402;17.866;2023-07-02T02:04:15;99116.50;;;17.43;61.74
19795;BME280;10057;59.402;17.866;2023-07-02T02:06:42;99118.22;;;17.44;61.87
19795;BME280;10057;59.402;17.866;2023-07-02T02:09:09;99112.59;;;17.47;62.03
19795;BME280;10057;59.402;17.866;2023-07-02T02:11:44;99107.66;;;17.52;62.04
19795;BME280;10057;59.402;17.866;2023-07-02T02:14:11;99103.84;;;17.55;62.05
19795;BME280;10057;59.402;17.866;2023-07-02T02:16:38;99098.03;;;17.60;62.07
19795;BME280;10057;59.402;17.866;2023-07-02T02:19:05;99095.25;;;17.61;62.03
19795;BME280;10057;59.402;17.866;2023-07-02T02:21:32;99098.47;;;17.65;62.03
19795;BME280;10057;59.402;17.866;2023-07-02T02:23:59;99101.84;;;17.67;62.02
19795;BME280;10057;59.402;17.866;2023-07-02T02:26:26;99093.53;;;17.70;62.16
19795;BME280;10057;59.402;17.866;2023-07-02T02:28:53;99094.38;;;17.70;62.28
19795;BME280;10057;59.402;17.866;2023-07-02T02:31:20;99091.28;;;17.75;62.25
19795;BME280;10057;59.402;17.866;2023-07-02T02:33:46;99088.34;;;17.78;62.33
19795;BME280;10057;59.402;17.866;2023-07-02T02:36:13;99090.16;;;17.77;62.26
19795;BME280;10057;59.402;17.866;2023-07-02T02:38:40;99089.88;;;17.81;62.35
19795;BME280;10057;59.402;17.866;2023-07-02T02:41:07;99083.38;;;17.83;62.43
19795;BME280;10057;59.402;17.866;2023-07-02T02:43:35;99081.13;;;17.88;62.46
19795;BME280;10057;59.402;17.866;2023-07-02T02:46:02;99083.94;;;17.87;62.63
19795;BME280;10057;59.402;17.866;2023-07-02T02:48:28;99090.16;;;17.87;62.73
19795;BME280;10057;59.402;17.866;2023-07-02T02:50:55;99086.34;;;17.80;62.62
19795;BME280;10057;59.402;17.866;2023-07-02T02:53:22;99089.88;;;17.71;63.14
19795;BME280;10057;59.402;17.866;2023-07-02T02:55:49;99095.94;;;17.63;63.16
19795;BME280;10057;59.402;17.866;2023-07-02T02:58:15;99083.69;;;17.61;63.53
19795;BME280;10057;59.402;17.866;2023-07-02T03:00:42;99076.31;;;17.63;63.24
19795;BME280;10057;59.402;17.866;2023-07-02T03:03:13;99086.91;;;17.64;63.34
19795;BME280;10057;59.402;17.866;2023-07-02T03:05:40;99079.56;;;17.66;63.56
19795;BME280;10057;59.402;17.866;2023-07-02T03:08:07;99078.28;;;17.70;63.55
19795;BME280;10057;59.402;17.866;2023-07-02T03:10:34;99076.31;;;17.72;63.63
19795;BME280;10057;59.402;17.866;2023-07-02T03:13:01;99065.44;;;17.74;63.55
19795;BME280;10057;59.402;17.866;2023-07-02T03:15:27;99061.53;;;17.78;63.59
19795;BME280;10057;59.402;17.866;2023-07-02T03:17:54;99064.63;;;17.83;63.47
19795;BME280;10057;59.402;17.866;2023-07-02T03:20:21;99061.66;;;17.86;63.49
19795;BME280;10057;59.402;17.866;2023-07-02T03:22:48;99054.31;;;17.88;63.46
19795;BME280;10057;59.402;17.866;2023-07-02T03:25:15;99050.63;;;17.89;63.53
19795;BME280;10057;59.402;17.866;2023-07-02T03:27:42;99051.75;;;17.87;63.79
19795;BME280;10057;59.402;17.866;2023-07-02T03:30:09;99055.56;;;17.84;63.74
19795;BME280;10057;59.402;17.866;2023-07-02T03:32:36;99051.91;;;17.85;63.81
19795;BME280;10057;59.402;17.866;2023-07-02T03:35:03;99047.53;;;17.84;64.26
19795;BME280;10057;59.402;17.866;2023-07-02T03:37:30;99048.94;;;17.88;64.07
19795;BME280;10057;59.402;17.866;2023-07-02T03:39:57;99049.22;;;17.95;64.11
19795;BME280;10057;59.402;17.866;2023-07-02T03:42:25;99037.03;;;18.00;64.01
19795;BME280;10057;59.402;17.866;2023-07-02T03:44:51;99042.41;;;18.00;63.99
19795;BME280;10057;59.402;17.866;2023-07-02T03:47:18;99039.44;;;18.04;64.03
19795;BME280;10057;59.402;17.866;2023-07-02T03:49:47;99037.31;;;18.07;63.99
19795;BME280;10057;59.402;17.866;2023-07-02T03:52:14;99030.66;;;18.11;64.06
19795;BME280;10057;59.402;17.866;2023-07-02T03:54:40;99021.75;;;18.11;63.86
19795;BME280;10057;59.402;17.866;2023-07-02T03:57:07;99014.72;;;18.10;63.99
19795;BME280;10057;59.402;17.866;2023-07-02T03:59:34;99008.63;;;18.08;64.19
19795;BME280;10057;59.402;17.866;2023-07-02T04:02:01;98999.91;;;18.06;64.25
19795;BME280;10057;59.402;17.866;2023-07-02T04:04:28;99004.28;;;18.07;64.29
19795;BME280;10057;59.402;17.866;2023-07-02T04:06:55;99000.75;;;18.06;64.39
19795;BME280;10057;59.402;17.866;2023-07-02T04:09:22;98993.53;;;18.07;64.33
19795;BME280;10057;59.402;17.866;2023-07-02T04:11:52;98994.25;;;18.09;64.56
19795;BME280;10057;59.402;17.866;2023-07-02T04:14:18;98997.47;;;18.12;64.55
19795;BME280;10057;59.402;17.866;2023-07-02T04:16:45;98996.03;;;18.18;64.33
19795;BME280;10057;59.402;17.866;2023-07-02T04:19:12;98994.06;;;18.20;64.44
19795;BME280;10057;59.402;17.866;2023-07-02T04:21:39;98985.00;;;18.21;64.14
19795;BME280;10057;59.402;17.866;2023-07-02T04:24:06;98993.06;;;18.21;64.48
19795;BME280;10057;59.402;17.866;2023-07-02T04:26:34;98992.06;;;18.22;64.29
19795;BME280;10057;59.402;17.866;2023-07-02T04:29:20;98991.75;;;18.25;64.56
19795;BME280;10057;59.402;17.866;2023-07-02T04:31:47;98984.13;;;18.30;64.39
19795;BME280;10057;59.402;17.866;2023-07-02T04:34:14;98981.41;;;18.40;64.44
19795;BME280;10057;59.402;17.866;2023-07-02T04:36:41;98972.03;;;18.44;64.32
19795;BME280;10057;59.402;17.866;2023-07-02T04:39:08;98972.28;;;18.51;64.19
19795;BME280;10057;59.402;17.866;2023-07-02T04:41:35;98968.59;;;18.52;64.07
19795;BME280;10057;59.402;17.866;2023-07-02T04:44:02;98968.59;;;18.52;64.08
19795;BME280;10057;59.402;17.866;2023-07-02T04:46:29;98960.53;;;18.52;64.24
19795;BME280;10057;59.402;17.866;2023-07-02T04:48:56;98964.91;;;18.53;64.25
19795;BME280;10057;59.402;17.866;2023-07-02T04:51:23;98956.78;;;18.44;64.26
19795;BME280;10057;59.402;17.866;2023-07-02T04:53:50;98951.41;;;18.44;64.31
19795;BME280;10057;59.402;17.866;2023-07-02T04:56:16;98947.28;;;18.50;64.29
19795;BME280;10057;59.402;17.866;2023-07-02T04:58:43;98946.75;;;18.46;64.21
19795;BME280;10057;59.402;17.866;2023-07-02T05:01:10;98942.50;;;18.44;64.43
19795;BME280;10057;59.402;17.866;2023-07-02T05:03:37;98944.19;;;18.45;64.12
19795;BME280;10057;59.402;17.866;2023-07-02T05:06:05;98942.06;;;18.48;64.23
19795;BME280;10057;59.402;17.866;2023-07-02T05:08:31;98937.94;;;18.54;64.06
19795;BME280;10057;59.402;17.866;2023-07-02T05:10:58;98940.84;;;18.61;63.96
19795;BME280;10057;59.402;17.866;2023-07-02T05:13:25;98943.91;;;18.66;63.74
19795;BME280;10057;59.402;17.866;2023-07-02T05:15:52;98938.94;;;18.71;63.67
19795;BME280;10057;59.402;17.866;2023-07-02T05:18:19;98933.31;;;18.74;63.41
19795;BME280;10057;59.402;17.866;2023-07-02T05:20:45;98932.13;;;18.77;63.39
19795;BME280;10057;59.402;17.866;2023-07-02T05:23:13;98925.31;;;18.82;63.10
19795;BME280;10057;59.402;17.866;2023-07-02T05:25:40;98921.31;;;18.86;62.99
19795;BME280;10057;59.402;17.866;2023-07-02T05:28:06;98919.34;;;18.88;62.87
19795;BME280;10057;59.402;17.866;2023-07-02T05:30:33;98913.66;;;18.91;62.89
19795;BME280;10057;59.402;17.866;2023-07-02T05:33:00;98909.81;;;18.94;62.79
19795;BME280;10057;59.402;17.866;2023-07-02T05:35:27;98910.50;;;18.96;62.47
19795;BME280;10057;59.402;17.866;2023-07-02T05:37:54;98911.34;;;18.97;62.59
19795;BME280;10057;59.402;17.866;2023-07-02T05:40:20;98908.66;;;18.97;62.57
19795;BME280;10057;59.402;17.866;2023-07-02T05:42:47;98901.44;;;18.97;62.64
19795;BME280;10057;59.402;17.866;2023-07-02T05:45:16;98903.97;;;18.99;62.63
19795;BME280;10057;59.402;17.866;2023-07-02T05:47:43;98901.97;;;19.01;62.61
19795;BME280;10057;59.402;17.866;2023-07-02T05:50:10;98897.16;;;19.04;62.71
19795;BME280;10057;59.402;17.866;2023-07-02T05:52:37;98890.28;;;19.10;62.67
19795;BME280;10057;59.402;17.866;2023-07-02T05:55:04;98893.38;;;19.15;62.31
19795;BME280;10057;59.402;17.866;2023-07-02T05:57:31;98901.25;;;19.16;62.23
19795;BME280;10057;59.402;17.866;2023-07-02T05:59:57;98898.75;;;19.15;62.22
19795;BME280;10057;59.402;17.866;2023-07-02T06:02:24;98902.09;;;19.17;62.13
19795;BME280;10057;59.402;17.866;2023-07-02T06:04:51;98890.19;;;19.20;62.25
19795;BME280;10057;59.402;17.866;2023-07-02T06:07:18;98891.72;;;19.22;62.01
19795;BME280;10057;59.402;17.866;2023-07-02T06:09:45;98890.72;;;19.23;61.95
19795;BME280;10057;59.402;17.866;2023-07-02T06:12:12;98896.41;;;19.20;61.84
19795;BME280;10057;59.402;17.866;2023-07-02T06:14:39;98894.72;;;19.19;61.84
19795;BME280;10057;59.402;17.866;2023-07-02T06:17:07;98888.81;;;19.15;62.05
19795;BME280;10057;59.402;17.866;2023-07-02T06:19:35;98883.59;;;19.14;62.06
19795;BME280;10057;59.402;17.866;2023-07-02T06:22:02;98878.06;;;19.15;61.99
19795;BME280;10057;59.402;17.866;2023-07-02T06:24:28;98882.13;;;19.20;61.87
19795;BME280;10057;59.402;17.866;2023-07-02T06:26:55;98882.31;;;19.18;61.66
19795;BME280;10057;59.402;17.866;2023-07-02T06:29:23;98873.22;;;19.19;61.71
19795;BME280;10057;59.402;17.866;2023-07-02T06:31:50;98871.75;;;19.25;61.76
19795;BME280;10057;59.402;17.866;2023-07-02T06:34:17;98868.59;;;19.29;61.74
19795;BME280;10057;59.402;17.866;2023-07-02T06:36:43;98868.94;;;19.34;61.56
19795;BME280;10057;59.402;17.866;2023-07-02T06:39:10;98863.78;;;19.41;61.53
19795;BME280;10057;59.402;17.866;2023-07-02T06:41:37;98867.31;;;19.41;61.30
19795;BME280;10057;59.402;17.866;2023-07-02T06:44:04;98860.78;;;19.44;61.40
19795;BME280;10057;59.402;17.866;2023-07-02T06:46:31;98857.78;;;19.47;61.19
19795;BME280;10057;59.402;17.866;2023-07-02T06:48:57;98862.16;;;19.48;61.11
19795;BME280;10057;59.402;17.866;2023-07-02T06:51:24;98851.38;;;19.48;60.93
19795;BME280;10057;59.402;17.866;2023-07-02T06:53:53;98859.63;;;19.47;61.08
19795;BME280;10057;59.402;17.866;2023-07-02T06:56:20;98846.88;;;19.49;61.11
19795;BME280;10057;59.402;17.866;2023-07-02T06:58:46;98853.94;;;19.50;60.94
19795;BME280;10057;59.402;17.866;2023-07-02T07:01:13;98846.19;;;19.47;60.77
19795;BME280;10057;59.402;17.866;2023-07-02T07:03:40;98846.50;;;19.44;60.89
19795;BME280;10057;59.402;17.866;2023-07-02T07:06:07;98841.63;;;19.39;60.96
19795;BME280;10057;59.402;17.866;2023-07-02T07:08:37;98840.22;;;19.35;61.02
19795;BME280;10057;59.402;17.866;2023-07-02T07:11:04;98832.31;;;19.33;61.25
19795;BME280;10057;59.402;17.866;2023-07-02T07:13:31;98834.00;;;19.34;61.10
19795;BME280;10057;59.402;17.866;2023-07-02T07:15:58;98828.09;;;19.31;61.00
19795;BME280;10057;59.402;17.866;2023-07-02T07:18:24;98830.03;;;19.38;61.75
19795;BME280;10057;59.402;17.866;2023-07-02T07:20:51;98825.84;;;19.44;61.56
19795;BME280;10057;59.402;17.866;2023-07-02T07:23:22;98822.63;;;19.40;61.46
19795;BME280;10057;59.402;17.866;2023-07-02T07:25:49;98823.78;;;19.38;61.54
19795;BME280;10057;59.402;17.866;2023-07-02T07:28:15;98821.09;;;19.38;61.53
19795;BME280;10057;59.402;17.866;2023-07-02T07:30:43;98821.97;;;19.38;61.56
19795;BME280;10057;59.402;17.866;2023-07-02T07:33:10;98812.03;;;19.39;61.39
19795;BME280;10057;59.402;17.866;2023-07-02T07:35:37;98814.72;;;19.39;61.35
19795;BME280;10057;59.402;17.866;2023-07-02T07:38:04;98807.81;;;19.36;61.37
19795;BME280;10057;59.402;17.866;2023-07-02T07:40:31;98809.88;;;19.42;61.32
19795;BME280;10057;59.402;17.866;2023-07-02T07:42:58;98796.13;;;19.46;61.24
19795;BME280;10057;59.402;17.866;2023-07-02T07:45:25;98796.13;;;19.46;61.03
19795;BME280;10057;59.402;17.866;2023-07-02T07:47:51;98793.09;;;19.49;61.09
19795;BME280;10057;59.402;17.866;2023-07-02T07:50:18;98793.25;;;19.47;61.10
19795;BME280;10057;59.402;17.866;2023-07-02T07:52:45;98796.13;;;19.46;61.11
19795;BME280;10057;59.402;17.866;2023-07-02T07:55:12;98796.78;;;19.48;61.09
19795;BME280;10057;59.402;17.866;2023-07-02T07:57:38;98790.41;;;19.49;61.04
19795;BME280;10057;59.402;17.866;2023-07-02T08:00:06;98785.88;;;19.49;61.06
19795;BME280;10057;59.402;17.866;2023-07-02T08:02:39;98791.91;;;19.51;60.84
19795;BME280;10057;59.402;17.866;2023-07-02T08:05:07;98789.75;;;19.55;60.82
19795;BME280;10057;59.402;17.866;2023-07-02T08:07:34;98785.75;;;19.59;60.76
19795;BME280;10057;59.402;17.866;2023-07-02T08:10:01;98791.81;;;19.61;60.85
19795;BME280;10057;59.402;17.866;2023-07-02T08:12:29;98793.97;;;19.57;61.24
19795;BME280;10057;59.402;17.866;2023-07-02T08:14:56;98795.31;;;19.53;61.66
19795;BME280;10057;59.402;17.866;2023-07-02T08:17:23;98796.13;;;19.46;61.92
19795;BME280;10057;59.402;17.866;2023-07-02T08:19:50;98797.75;;;19.38;62.32
19795;BME280;10057;59.402;17.866;2023-07-02T08:22:17;98798.53;;;19.31;62.81
19795;BME280;10057;59.402;17.866;2023-07-02T08:24:43;98799.97;;;19.17;63.16
19795;BME280;10057;59.402;17.866;2023-07-02T08:27:10;98797.56;;;19.06;63.70
19795;BME280;10057;59.402;17.866;2023-07-02T08:29:40;98797.66;;;18.96;64.27
19795;BME280;10057;59.402;17.866;2023-07-02T08:32:07;98803.66;;;18.90;64.50
19795;BME280;10057;59.402;17.866;2023-07-02T08:34:34;98795.84;;;18.79;65.11
19795;BME280;10057;59.402;17.866;2023-07-02T08:37:00;98792.94;;;18.72;65.37
19795;BME280;10057;59.402;17.866;2023-07-02T08:39:27;98803.59;;;18.64;65.77
19795;BME280;10057;59.402;17.866;2023-07-02T08:41:54;98799.16;;;18.55;66.04
19795;BME280;10057;59.402;17.866;2023-07-02T08:44:21;98798.16;;;18.56;66.26
19795;BME280;10057;59.402;17.866;2023-07-02T08:46:51;98795.16;;;18.59;66.56
19795;BME280;10057;59.402;17.866;2023-07-02T08:49:20;98793.19;;;18.61;66.20
19795;BME280;10057;59.402;17.866;2023-07-02T08:51:47;98791.63;;;18.58;66.34
19795;BME280;10057;59.402;17.866;2023-07-02T08:54:14;98802.84;;;18.54;66.42
19795;BME280;10057;59.402;17.866;2023-07-02T08:56:44;98826.00;;;18.55;66.53
19795;BME280;10057;59.402;17.866;2023-07-02T08:59:13;98829.00;;;18.52;66.63
19795;BME280;10057;59.402;17.866;2023-07-02T09:01:52;98833.59;;;18.41;66.77
19795;BME280;10057;59.402;17.866;2023-07-02T09:04:21;98834.06;;;18.19;67.21
19795;BME280;10057;59.402;17.866;2023-07-02T09:06:48;98807.34;;;17.99;68.17
19795;BME280;10057;59.402;17.866;2023-07-02T09:09:16;98776.16;;;17.98;68.47
19795;BME280;10057;59.402;17.866;2023-07-02T09:11:47;98740.75;;;17.95;68.83
19795;BME280;10057;59.402;17.866;2023-07-02T09:14:29;98728.78;;;17.89;68.69
19795;BME280;10057;59.402;17.866;2023-07-02T09:17:08;98720.19;;;17.86;68.92
19795;BME280;10057;59.402;17.866;2023-07-02T09:19:36;98723.34;;;17.81;68.95
19795;BME280;10057;59.402;17.866;2023-07-02T09:22:15;98724.88;;;17.74;69.20
19795;BME280;10057;59.402;17.866;2023-07-02T09:24:58;98733.09;;;17.72;69.32
19795;BME280;10057;59.402;17.866;2023-07-02T09:27:38;98741.31;;;17.71;69.41
19795;BME280;10057;59.402;17.866;2023-07-02T09:30:11;98750.19;;;17.71;69.56
19795;BME280;10057;59.402;17.866;2023-07-02T09:32:40;98758.91;;;17.73;69.65
19795;BME280;10057;59.402;17.866;2023-07-02T09:35:07;98756.09;;;17.75;69.91
19795;BME280;10057;59.402;17.866;2023-07-02T09:37:34;98754.25;;;17.75;69.85
19795;BME280;10057;59.402;17.866;2023-07-02T09:40:01;98748.75;;;17.77;69.96
19795;BME280;10057;59.402;17.866;2023-07-02T09:42:29;98752.84;;;17.81;69.92
19795;BME280;10057;59.402;17.866;2023-07-02T09:44:58;98746.19;;;17.85;70.00
19795;BME280;10057;59.402;17.866;2023-07-02T09:47:26;98747.38;;;17.91;70.15
19795;BME280;10057;59.402;17.866;2023-07-02T09:49:55;98745.41;;;17.93;70.19
19795;BME280;10057;59.402;17.866;2023-07-02T09:52:25;98728.84;;;17.97;70.42
19795;BME280;10057;59.402;17.866;2023-07-02T09:54:53;98738.13;;;18.03;70.50
19795;BME280;10057;59.402;17.866;2023-07-02T09:57:20;98743.50;;;18.21;73.86
19795;BME280;10057;59.402;17.866;2023-07-02T09:59:48;98744.75;;;18.53;74.50
19795;BME280;10057;59.402;17.866;2023-07-02T10:02:17;98735.78;;;18.62;73.43
19795;BME280;10057;59.402;17.866;2023-07-02T10:04:47;98735.47;;;18.65;72.78
19795;BME280;10057;59.402;17.866;2023-07-02T10:07:27;98732.09;;;18.63;72.21
19795;BME280;10057;59.402;17.866;2023-07-02T10:09:54;98730.59;;;18.60;71.91
19795;BME280;10057;59.402;17.866;2023-07-02T10:12:30;98725.66;;;18.56;71.54
19795;BME280;10057;59.402;17.866;2023-07-02T10:14:58;98717.38;;;18.49;71.54
19795;BME280;10057;59.402;17.866;2023-07-02T10:17:27;98712.81;;;18.41;71.55
19795;BME280;10057;59.402;17.866;2023-07-02T10:20:06;98705.06;;;18.38;71.52
19795;BME280;10057;59.402;17.866;2023-07-02T10:22:43;98706.06;;;18.37;71.39
19795;BME280;10057;59.402;17.866;2023-07-02T10:25:10;98704.69;;;18.33;71.41
19795;BME280;10057;59.402;17.866;2023-07-02T10:27:39;98697.25;;;18.27;71.55
19795;BME280;10057;59.402;17.866;2023-07-02T10:30:07;98692.50;;;18.21;71.80
19795;BME280;10057;59.402;17.866;2023-07-02T10:32:35;98687.31;;;18.19;72.11
19795;BME280;10057;59.402;17.866;2023-07-02T10:35:13;98689.59;;;18.14;71.90
19795;BME280;10057;59.402;17.866;2023-07-02T10:37:41;98688.47;;;18.17;72.01
19795;BME280;10057;59.402;17.866;2023-07-02T10:40:08;98693.22;;;18.23;72.01
19795;BME280;10057;59.402;17.866;2023-07-02T10:42:50;98684.84;;;18.26;71.81
19795;BME280;10057;59.402;17.866;2023-07-02T10:45:18;98681.88;;;18.29;71.80
19795;BME280;10057;59.402;17.866;2023-07-02T10:47:45;98682.69;;;18.30;71.59
19795;BME280;10057;59.402;17.866;2023-07-02T10:50:17;98669.44;;;18.28;71.80
19795;BME280;10057;59.402;17.866;2023-07-02T10:52:46;98666.06;;;18.26;71.80
19795;BME280;10057;59.402;17.866;2023-07-02T10:55:31;98672.59;;;18.23;72.01
19795;BME280;10057;59.402;17.866;2023-07-02T10:58:05;98669.06;;;18.23;72.21
19795;BME280;10057;59.402;17.866;2023-07-02T11:00:42;98680.78;;;18.22;72.48
19795;BME280;10057;59.402;17.866;2023-07-02T11:03:20;98678.47;;;18.27;72.51
19795;BME280;10057;59.402;17.866;2023-07-02T11:05:48;98680.03;;;18.30;72.75
19795;BME280;10057;59.402;17.866;2023-07-02T11:08:16;98674.47;;;18.31;72.85
19795;BME280;10057;59.402;17.866;2023-07-02T11:10:43;98667.97;;;18.34;72.90
19795;BME280;10057;59.402;17.866;2023-07-02T11:13:17;98666.34;;;18.41;73.01
19795;BME280;10057;59.402;17.866;2023-07-02T11:15:45;98667.69;;;18.45;72.90
19795;BME280;10057;59.402;17.866;2023-07-02T11:18:16;98662.50;;;18.43;72.74
19795;BME280;10057;59.402;17.866;2023-07-02T11:20:45;98649.72;;;18.37;72.97
19795;BME280;10057;59.402;17.866;2023-07-02T11:23:23;98653.00;;;18.31;72.93
19795;BME280;10057;59.402;17.866;2023-07-02T11:25:58;98650.63;;;18.28;72.85
19795;BME280;10057;59.402;17.866;2023-07-02T11:28:27;98655.34;;;18.26;73.13
19795;BME280;10057;59.402;17.866;2023-07-02T11:30:54;98655.34;;;18.26;73.18
19795;BME280;10057;59.402;17.866;2023-07-02T11:33:38;98662.00;;;18.22;72.77
19795;BME280;10057;59.402;17.866;2023-07-02T11:36:06;98665.16;;;18.17;72.90
19795;BME280;10057;59.402;17.866;2023-07-02T11:38:35;98662.47;;;18.17;73.22
19795;BME280;10057;59.402;17.866;2023-07-02T11:41:03;98678.78;;;18.24;73.33
19795;BME280;10057;59.402;17.866;2023-07-02T11:43:30;98682.84;;;18.28;73.27
19795;BME280;10057;59.402;17.866;2023-07-02T11:45:57;98682.53;;;18.31;73.11
19795;BME280;10057;59.402;17.866;2023-07-02T11:48:24;98680.69;;;18.32;73.20
19795;BME280;10057;59.402;17.866;2023-07-02T11:50:51;98684.91;;;18.34;73.08
19795;BME280;10057;59.402;17.866;2023-07-02T11:53:17;98685.22;;;18.31;73.12
19795;BME280;10057;59.402;17.866;2023-07-02T11:55:44;98684.38;;;18.31;73.23
19795;BME280;10057;59.402;17.866;2023-07-02T11:58:11;98688.91;;;18.30;73.38
19795;BME280;10057;59.402;17.866;2023-07-02T12:00:38;98680.84;;;18.30;73.65
19795;BME280;10057;59.402;17.866;2023-07-02T12:03:04;98666.75;;;18.28;73.36
19795;BME280;10057;59.402;17.866;2023-07-02T12:05:31;98661.00;;;18.23;73.42
19795;BME280;10057;59.402;17.866;2023-07-02T12:08:01;98657.63;;;18.21;73.80
19795;BME280;10057;59.402;17.866;2023-07-02T12:10:28;98663.31;;;18.18;73.76
19795;BME280;10057;59.402;17.866;2023-07-02T12:12:55;98657.09;;;18.17;74.13
19795;BME280;10057;59.402;17.866;2023-07-02T12:15:22;98653.75;;;18.15;74.12
19795;BME280;10057;59.402;17.866;2023-07-02T12:17:48;98660.63;;;18.18;74.11
19795;BME280;10057;59.402;17.866;2023-07-02T12:20:15;98667.00;;;18.17;74.07
19795;BME280;10057;59.402;17.866;2023-07-02T12:22:42;98664.31;;;18.17;73.83
19795;BME280;10057;59.402;17.866;2023-07-02T12:25:10;98670.16;;;18.12;73.75
19795;BME280;10057;59.402;17.866;2023-07-02T12:27:37;98677.50;;;18.10;74.12
19795;BME280;10057;59.402;17.866;2023-07-02T12:30:05;98667.91;;;18.08;74.16
19795;BME280;10057;59.402;17.866;2023-07-02T12:32:32;98676.97;;;18.07;74.30
19795;BME280;10057;59.402;17.866;2023-07-02T12:34:59;98667.25;;;18.06;74.37
19795;BME280;10057;59.402;17.866;2023-07-02T12:37:26;98662.97;;;17.95;74.57
19795;BME280;10057;59.402;17.866;2023-07-02T12:39:53;98675.81;;;17.91;74.80
19795;BME280;10057;59.402;17.866;2023-07-02T12:42:19;98676.50;;;17.93;74.85
19795;BME280;10057;59.402;17.866;2023-07-02T12:44:46;98685.56;;;17.92;74.92
19795;BME280;10057;59.402;17.866;2023-07-02T12:47:13;98682.06;;;17.92;74.82
19795;BME280;10057;59.402;17.866;2023-07-02T12:49:40;98675.28;;;17.88;74.90
19795;BME280;10057;59.402;17.866;2023-07-02T12:52:06;98680.50;;;17.89;75.15
19795;BME280;10057;59.402;17.866;2023-07-02T12:54:33;98685.81;;;17.81;75.16